sensor_id;sensor_type;location;lat;lon;timestamp;P1;durP1;ratioP1;P2;durP2;ratioP2
55609;SDS011;41486;52.502;13.486;2022-11-15T00:00:33;28.42;;;15.68;;
55609;SDS011;41486;52.502;13.486;2022-11-15T00:06:20;26.48;;;15.02;;
55609;SDS011;41486;52.502;13.486;2022-11-15T00:09:07;29.75;;;15.32;;
55609;SDS011;41486;52.502;13.486;2022-11-15T00:11:55;24.40;;;13.82;;
55609;SDS011;41486;52.502;13.486;2022-11-15T00:14:42;26.13;;;15.07;;
55609;SDS011;41486;52.502;13.486;2022-11-15T00:17:29;24.52;;;14.20;;
55609;SDS011;41486;52.502;13.486;2022-11-15T00:20:16;25.00;;;13.68;;
55609;SDS011;41486;52.502;13.486;2022-11-15T00:23:03;29.42;;;15.27;;
55609;SDS011;41486;52.502;13.486;2022-11-15T00:25:55;26.92;;;15.38;;
55609;SDS011;41486;52.502;13.486;2022-11-15T00:28:44;27.58;;;14.77;;
55609;SDS011;41486;52.502;13.486;2022-11-15T00:31:33;28.15;;;14.57;;
55609;SDS011;41486;52.502;13.486;2022-11-15T00:34:20;25.75;;;14.50;;
55609;SDS011;41486;52.502;13.486;2022-11-15T00:37:06;24.40;;;14.80;;
55609;SDS011;41486;52.502;13.486;2022-11-15T00:39:53;31.42;;;14.85;;
55609;SDS011;41486;52.502;13.486;2022-11-15T00:42:40;28.65;;;14.40;;
55609;SDS011;41486;52.502;13.486;2022-11-15T00:45:27;24.65;;;12.93;;
55609;SDS011;41486;52.502;13.486;2022-11-15T00:48:14;25.75;;;14.15;;
55609;SDS011;41486;52.502;13.486;2022-11-15T00:51:00;27.00;;;15.60;;
55609;SDS011;41486;52.502;13.486;2022-11-15T00:53:47;21.98;;;12.75;;
55609;SDS011;41486;52.502;13.486;2022-11-15T00:56:33;26.40;;;15.27;;
55609;SDS011;41486;52.502;13.486;2022-11-15T00:59:20;26.30;;;15.10;;
55609;SDS011;41486;52.502;13.486;2022-11-15T01:02:08;27.17;;;14.20;;
55609;SDS011;41486;52.502;13.486;2022-11-15T01:04:54;30.52;;;14.73;;
55609;SDS011;41486;52.502;13.486;2022-11-15T01:07:41;28.48;;;15.90;;
55609;SDS011;41486;52.502;13.486;2022-11-15T01:10:27;31.55;;;15.50;;
55609;SDS011;41486;52.502;13.486;2022-11-15T01:13:14;25.75;;;13.57;;
55609;SDS011;41486;52.502;13.486;2022-11-15T01:16:05;26.45;;;14.77;;
55609;SDS011;41486;52.502;13.486;2022-11-15T01:18:54;27.85;;;15.13;;
55609;SDS011;41486;52.502;13.486;2022-11-15T01:21:40;25.77;;;15.05;;
55609;SDS011;41486;52.502;13.486;2022-11-15T01:24:27;25.50;;;15.27;;
55609;SDS011;41486;52.502;13.486;2022-11-15T01:27:14;31.02;;;16.83;;
55609;SDS011;41486;52.502;13.486;2022-11-15T01:30:00;26.83;;;16.23;;
55609;SDS011;41486;52.502;13.486;2022-11-15T01:32:47;28.77;;;16.73;;
55609;SDS011;41486;52.502;13.486;2022-11-15T01:35:37;24.95;;;14.07;;
55609;SDS011;41486;52.502;13.486;2022-11-15T01:38:24;30.40;;;16.10;;
55609;SDS011;41486;52.502;13.486;2022-11-15T01:41:18;27.38;;;15.35;;
55609;SDS011;41486;52.502;13.486;2022-11-15T01:47:12;27.08;;;14.45;;
55609;SDS011;41486;52.502;13.486;2022-11-15T01:50:03;26.75;;;14.07;;
55609;SDS011;41486;52.502;13.486;2022-11-15T01:52:54;26.40;;;16.10;;
55609;SDS011;41486;52.502;13.486;2022-11-15T01:55:40;28.08;;;14.15;;
55609;SDS011;41486;52.502;13.486;2022-11-15T01:58:29;26.00;;;15.50;;
55609;SDS011;41486;52.502;13.486;2022-11-15T02:01:15;31.98;;;15.73;;
55609;SDS011;41486;52.502;13.486;2022-11-15T02:04:04;27.60;;;15.65;;
55609;SDS011;41486;52.502;13.486;2022-11-15T02:06:56;25.42;;;14.70;;
55609;SDS011;41486;52.502;13.486;2022-11-15T02:09:44;28.40;;;15.15;;
55609;SDS011;41486;52.502;13.486;2022-11-15T02:12:31;30.17;;;16.25;;
55609;SDS011;41486;52.502;13.486;2022-11-15T02:15:19;29.90;;;14.38;;
55609;SDS011;41486;52.502;13.486;2022-11-15T02:18:08;30.52;;;16.77;;
55609;SDS011;41486;52.502;13.486;2022-11-15T02:24:16;32.58;;;15.43;;
55609;SDS011;41486;52.502;13.486;2022-11-15T02:27:34;25.25;;;14.48;;
55609;SDS011;41486;52.502;13.486;2022-11-15T02:30:40;30.10;;;14.47;;
55609;SDS011;41486;52.502;13.486;2022-11-15T02:33:31;30.08;;;14.80;;
55609;SDS011;41486;52.502;13.486;2022-11-15T02:36:27;27.40;;;14.57;;
55609;SDS011;41486;52.502;13.486;2022-11-15T02:39:23;29.80;;;14.98;;
55609;SDS011;41486;52.502;13.486;2022-11-15T02:42:14;32.78;;;15.82;;
55609;SDS011;41486;52.502;13.486;2022-11-15T02:45:24;32.08;;;16.08;;
55609;SDS011;41486;52.502;13.486;2022-11-15T02:48:16;29.83;;;15.98;;
55609;SDS011;41486;52.502;13.486;2022-11-15T02:51:04;29.02;;;16.85;;
55609;SDS011;41486;52.502;13.486;2022-11-15T02:53:51;26.48;;;14.85;;
55609;SDS011;41486;52.502;13.486;2022-11-15T02:56:38;24.00;;;13.88;;
55609;SDS011;41486;52.502;13.486;2022-11-15T02:59:35;33.78;;;16.02;;
55609;SDS011;41486;52.502;13.486;2022-11-15T03:02:35;28.33;;;16.02;;
55609;SDS011;41486;52.502;13.486;2022-11-15T03:05:34;29.30;;;15.20;;
55609;SDS011;41486;52.502;13.486;2022-11-15T03:08:25;34.00;;;16.45;;
55609;SDS011;41486;52.502;13.486;2022-11-15T03:11:17;26.25;;;14.30;;
55609;SDS011;41486;52.502;13.486;2022-11-15T03:14:07;30.42;;;15.95;;
55609;SDS011;41486;52.502;13.486;2022-11-15T03:17:02;28.63;;;15.27;;
55609;SDS011;41486;52.502;13.486;2022-11-15T03:19:58;28.05;;;14.70;;
55609;SDS011;41486;52.502;13.486;2022-11-15T03:22:48;28.15;;;14.05;;
55609;SDS011;41486;52.502;13.486;2022-11-15T03:25:38;30.00;;;16.45;;
55609;SDS011;41486;52.502;13.486;2022-11-15T03:28:30;31.52;;;16.55;;
55609;SDS011;41486;52.502;13.486;2022-11-15T03:31:20;26.98;;;14.65;;
55609;SDS011;41486;52.502;13.486;2022-11-15T03:34:34;28.85;;;15.73;;
55609;SDS011;41486;52.502;13.486;2022-11-15T03:37:27;31.60;;;16.70;;
55609;SDS011;41486;52.502;13.486;2022-11-15T03:40:22;34.55;;;17.30;;
55609;SDS011;41486;52.502;13.486;2022-11-15T03:43:15;28.65;;;16.05;;
55609;SDS011;41486;52.502;13.486;2022-11-15T03:46:10;29.13;;;16.23;;
55609;SDS011;41486;52.502;13.486;2022-11-15T03:49:02;27.40;;;15.43;;
55609;SDS011;41486;52.502;13.486;2022-11-15T03:51:55;31.20;;;16.23;;
55609;SDS011;41486;52.502;13.486;2022-11-15T03:54:50;30.60;;;16.85;;
55609;SDS011;41486;52.502;13.486;2022-11-15T03:57:39;33.47;;;16.58;;
55609;SDS011;41486;52.502;13.486;2022-11-15T04:00:26;30.98;;;15.57;;
55609;SDS011;41486;52.502;13.486;2022-11-15T04:03:13;31.85;;;16.88;;
55609;SDS011;41486;52.502;13.486;2022-11-15T04:05:59;30.75;;;16.05;;
55609;SDS011;41486;52.502;13.486;2022-11-15T04:08:46;31.58;;;16.75;;
55609;SDS011;41486;52.502;13.486;2022-11-15T04:11:32;31.58;;;15.68;;
55609;SDS011;41486;52.502;13.486;2022-11-15T04:14:20;32.70;;;16.02;;
55609;SDS011;41486;52.502;13.486;2022-11-15T04:17:07;31.35;;;16.65;;
55609;SDS011;41486;52.502;13.486;2022-11-15T04:19:53;28.83;;;16.38;;
55609;SDS011;41486;52.502;13.486;2022-11-15T04:22:58;35.17;;;17.98;;
55609;SDS011;41486;52.502;13.486;2022-11-15T04:26:05;37.17;;;16.30;;
55609;SDS011;41486;52.502;13.486;2022-11-15T04:28:55;28.85;;;14.35;;
55609;SDS011;41486;52.502;13.486;2022-11-15T04:32:00;30.63;;;15.90;;
55609;SDS011;41486;52.502;13.486;2022-11-15T04:34:47;31.02;;;17.80;;
55609;SDS011;41486;52.502;13.486;2022-11-15T04:37:33;34.97;;;18.02;;
55609;SDS011;41486;52.502;13.486;2022-11-15T04:40:20;34.25;;;17.75;;
55609;SDS011;41486;52.502;13.486;2022-11-15T04:43:07;31.33;;;16.27;;
55609;SDS011;41486;52.502;13.486;2022-11-15T04:45:53;28.67;;;16.42;;
55609;SDS011;41486;52.502;13.486;2022-11-15T04:48:41;27.92;;;16.70;;
55609;SDS011;41486;52.502;13.486;2022-11-15T04:51:28;28.52;;;15.63;;
55609;SDS011;41486;52.502;13.486;2022-11-15T04:54:14;36.97;;;17.85;;
55609;SDS011;41486;52.502;13.486;2022-11-15T04:57:01;32.78;;;16.83;;
55609;SDS011;41486;52.502;13.486;2022-11-15T04:59:48;33.72;;;17.63;;
55609;SDS011;41486;52.502;13.486;2022-11-15T05:02:34;33.15;;;16.90;;
55609;SDS011;41486;52.502;13.486;2022-11-15T05:05:40;33.20;;;17.08;;
55609;SDS011;41486;52.502;13.486;2022-11-15T05:08:27;32.80;;;16.35;;
55609;SDS011;41486;52.502;13.486;2022-11-15T05:11:13;29.92;;;15.27;;
55609;SDS011;41486;52.502;13.486;2022-11-15T05:14:00;32.88;;;15.45;;
55609;SDS011;41486;52.502;13.486;2022-11-15T05:16:46;32.08;;;16.58;;
55609;SDS011;41486;52.502;13.486;2022-11-15T05:19:33;28.98;;;16.35;;
55609;SDS011;41486;52.502;13.486;2022-11-15T05:22:21;33.30;;;16.25;;
55609;SDS011;41486;52.502;13.486;2022-11-15T05:25:08;31.02;;;15.52;;
55609;SDS011;41486;52.502;13.486;2022-11-15T05:27:54;31.45;;;16.60;;
55609;SDS011;41486;52.502;13.486;2022-11-15T05:30:41;30.98;;;15.88;;
55609;SDS011;41486;52.502;13.486;2022-11-15T05:33:31;35.53;;;16.27;;
55609;SDS011;41486;52.502;13.486;2022-11-15T05:36:20;34.85;;;16.85;;
55609;SDS011;41486;52.502;13.486;2022-11-15T05:39:13;31.50;;;15.75;;
55609;SDS011;41486;52.502;13.486;2022-11-15T05:42:00;31.02;;;16.65;;
55609;SDS011;41486;52.502;13.486;2022-11-15T05:44:51;31.52;;;16.70;;
55609;SDS011;41486;52.502;13.486;2022-11-15T05:47:38;33.47;;;16.73;;
55609;SDS011;41486;52.502;13.486;2022-11-15T05:50:28;29.98;;;15.95;;
55609;SDS011;41486;52.502;13.486;2022-11-15T05:53:16;31.13;;;16.55;;
55609;SDS011;41486;52.502;13.486;2022-11-15T05:56:06;27.52;;;15.25;;
55609;SDS011;41486;52.502;13.486;2022-11-15T05:58:55;29.00;;;15.20;;
55609;SDS011;41486;52.502;13.486;2022-11-15T06:01:44;31.80;;;16.92;;
55609;SDS011;41486;52.502;13.486;2022-11-15T06:04:31;28.38;;;15.60;;
55609;SDS011;41486;52.502;13.486;2022-11-15T06:07:17;34.20;;;15.95;;
55609;SDS011;41486;52.502;13.486;2022-11-15T06:10:05;34.85;;;16.63;;
55609;SDS011;41486;52.502;13.486;2022-11-15T06:12:57;29.38;;;16.92;;
55609;SDS011;41486;52.502;13.486;2022-11-15T06:15:44;28.23;;;14.90;;
55609;SDS011;41486;52.502;13.486;2022-11-15T06:18:31;31.67;;;15.63;;
55609;SDS011;41486;52.502;13.486;2022-11-15T06:21:18;28.05;;;15.45;;
55609;SDS011;41486;52.502;13.486;2022-11-15T06:24:05;30.42;;;16.17;;
55609;SDS011;41486;52.502;13.486;2022-11-15T06:26:52;33.13;;;16.95;;
55609;SDS011;41486;52.502;13.486;2022-11-15T06:29:43;31.73;;;17.10;;
55609;SDS011;41486;52.502;13.486;2022-11-15T06:32:29;31.80;;;17.30;;
55609;SDS011;41486;52.502;13.486;2022-11-15T06:35:16;30.80;;;15.82;;
55609;SDS011;41486;52.502;13.486;2022-11-15T06:38:04;31.10;;;16.80;;
55609;SDS011;41486;52.502;13.486;2022-11-15T06:40:52;33.85;;;15.85;;
55609;SDS011;41486;52.502;13.486;2022-11-15T06:43:39;32.53;;;17.73;;
55609;SDS011;41486;52.502;13.486;2022-11-15T06:46:27;28.77;;;15.48;;
55609;SDS011;41486;52.502;13.486;2022-11-15T06:49:14;30.38;;;15.85;;
55609;SDS011;41486;52.502;13.486;2022-11-15T06:52:01;40.45;;;26.60;;
55609;SDS011;41486;52.502;13.486;2022-11-15T06:54:48;30.55;;;16.35;;
55609;SDS011;41486;52.502;13.486;2022-11-15T06:57:35;29.33;;;16.60;;
55609;SDS011;41486;52.502;13.486;2022-11-15T07:00:22;30.33;;;17.38;;
55609;SDS011;41486;52.502;13.486;2022-11-15T07:03:10;32.92;;;16.67;;
55609;SDS011;41486;52.502;13.486;2022-11-15T07:05:57;26.25;;;15.40;;
55609;SDS011;41486;52.502;13.486;2022-11-15T07:08:51;27.27;;;15.20;;
55609;SDS011;41486;52.502;13.486;2022-11-15T07:11:38;32.40;;;15.85;;
55609;SDS011;41486;52.502;13.486;2022-11-15T07:14:27;28.23;;;15.23;;
55609;SDS011;41486;52.502;13.486;2022-11-15T07:17:14;29.88;;;16.08;;
55609;SDS011;41486;52.502;13.486;2022-11-15T07:20:02;29.25;;;15.65;;
55609;SDS011;41486;52.502;13.486;2022-11-15T07:22:50;30.23;;;16.50;;
55609;SDS011;41486;52.502;13.486;2022-11-15T07:25:36;29.17;;;14.68;;
55609;SDS011;41486;52.502;13.486;2022-11-15T07:28:23;31.50;;;15.95;;
55609;SDS011;41486;52.502;13.486;2022-11-15T07:31:10;35.83;;;16.77;;
55609;SDS011;41486;52.502;13.486;2022-11-15T07:33:59;32.08;;;15.65;;
55609;SDS011;41486;52.502;13.486;2022-11-15T07:36:47;31.20;;;16.45;;
55609;SDS011;41486;52.502;13.486;2022-11-15T07:39:34;36.47;;;18.27;;
55609;SDS011;41486;52.502;13.486;2022-11-15T07:42:20;29.55;;;16.98;;
55609;SDS011;41486;52.502;13.486;2022-11-15T07:45:25;32.50;;;15.93;;
55609;SDS011;41486;52.502;13.486;2022-11-15T07:48:12;30.45;;;14.80;;
55609;SDS011;41486;52.502;13.486;2022-11-15T07:50:59;27.85;;;15.80;;
55609;SDS011;41486;52.502;13.486;2022-11-15T07:53:47;28.25;;;16.88;;
55609;SDS011;41486;52.502;13.486;2022-11-15T07:56:33;25.98;;;16.00;;
55609;SDS011;41486;52.502;13.486;2022-11-15T07:59:20;40.78;;;15.95;;
55609;SDS011;41486;52.502;13.486;2022-11-15T08:02:08;32.92;;;15.48;;
55609;SDS011;41486;52.502;13.486;2022-11-15T08:04:55;32.83;;;17.08;;
55609;SDS011;41486;52.502;13.486;2022-11-15T08:07:44;28.58;;;17.75;;
55609;SDS011;41486;52.502;13.486;2022-11-15T08:10:38;34.83;;;17.92;;
55609;SDS011;41486;52.502;13.486;2022-11-15T08:13:25;32.50;;;16.60;;
55609;SDS011;41486;52.502;13.486;2022-11-15T08:16:11;35.90;;;17.33;;
55609;SDS011;41486;52.502;13.486;2022-11-15T08:19:00;29.38;;;15.30;;
55609;SDS011;41486;52.502;13.486;2022-11-15T08:21:47;37.75;;;20.67;;
55609;SDS011;41486;52.502;13.486;2022-11-15T08:24:34;46.38;;;26.48;;
55609;SDS011;41486;52.502;13.486;2022-11-15T08:27:21;55.00;;;31.63;;
55609;SDS011;41486;52.502;13.486;2022-11-15T08:30:08;56.00;;;32.90;;
55609;SDS011;41486;52.502;13.486;2022-11-15T08:32:56;50.97;;;27.38;;
55609;SDS011;41486;52.502;13.486;2022-11-15T08:35:44;72.60;;;45.42;;
55609;SDS011;41486;52.502;13.486;2022-11-15T08:38:30;59.08;;;35.50;;
55609;SDS011;41486;52.502;13.486;2022-11-15T08:41:19;53.67;;;30.48;;
55609;SDS011;41486;52.502;13.486;2022-11-15T08:44:17;122.70;;;67.00;;
55609;SDS011;41486;52.502;13.486;2022-11-15T08:47:03;51.40;;;30.58;;
55609;SDS011;41486;52.502;13.486;2022-11-15T08:49:50;35.05;;;16.17;;
55609;SDS011;41486;52.502;13.486;2022-11-15T08:52:42;29.30;;;17.08;;
55609;SDS011;41486;52.502;13.486;2022-11-15T08:55:28;25.75;;;16.48;;
55609;SDS011;41486;52.502;13.486;2022-11-15T08:58:15;23.65;;;13.55;;
55609;SDS011;41486;52.502;13.486;2022-11-15T09:01:03;30.90;;;15.50;;
55609;SDS011;41486;52.502;13.486;2022-11-15T09:03:51;26.38;;;15.15;;
55609;SDS011;41486;52.502;13.486;2022-11-15T09:06:37;27.00;;;15.35;;
55609;SDS011;41486;52.502;13.486;2022-11-15T09:09:27;21.95;;;13.38;;
55609;SDS011;41486;52.502;13.486;2022-11-15T09:12:14;24.13;;;13.93;;
55609;SDS011;41486;52.502;13.486;2022-11-15T09:15:00;23.73;;;13.48;;
55609;SDS011;41486;52.502;13.486;2022-11-15T09:17:51;21.45;;;13.77;;
55609;SDS011;41486;52.502;13.486;2022-11-15T09:20:37;25.45;;;12.88;;
55609;SDS011;41486;52.502;13.486;2022-11-15T09:23:24;23.33;;;13.02;;
55609;SDS011;41486;52.502;13.486;2022-11-15T09:26:11;26.20;;;14.25;;
55609;SDS011;41486;52.502;13.486;2022-11-15T09:28:57;21.05;;;12.13;;
55609;SDS011;41486;52.502;13.486;2022-11-15T09:31:46;24.42;;;12.98;;
55609;SDS011;41486;52.502;13.486;2022-11-15T09:34:33;21.63;;;13.15;;
55609;SDS011;41486;52.502;13.486;2022-11-15T09:37:23;23.10;;;13.93;;
55609;SDS011;41486;52.502;13.486;2022-11-15T09:40:11;22.85;;;14.77;;
55609;SDS011;41486;52.502;13.486;2022-11-15T09:43:04;22.27;;;13.18;;
55609;SDS011;41486;52.502;13.486;2022-11-15T09:46:06;18.20;;;11.68;;
55609;SDS011;41486;52.502;13.486;2022-11-15T09:49:15;20.77;;;11.57;;
55609;SDS011;41486;52.502;13.486;2022-11-15T09:51:59;20.02;;;10.77;;
55609;SDS011;41486;52.502;13.486;2022-11-15T09:54:31;22.13;;;12.90;;
55609;SDS011;41486;52.502;13.486;2022-11-15T09:57:23;28.02;;;14.75;;
55609;SDS011;41486;52.502;13.486;2022-11-15T10:00:04;18.77;;;11.20;;
55609;SDS011;41486;52.502;13.486;2022-11-15T10:05:42;18.65;;;10.93;;
55609;SDS011;41486;52.502;13.486;2022-11-15T10:08:24;17.55;;;12.00;;
55609;SDS011;41486;52.502;13.486;2022-11-15T10:11:00;25.00;;;15.13;;
55609;SDS011;41486;52.502;13.486;2022-11-15T10:13:51;16.90;;;11.48;;
55609;SDS011;41486;52.502;13.486;2022-11-15T10:16:31;21.38;;;13.52;;
55609;SDS011;41486;52.502;13.486;2022-11-15T10:19:23;24.85;;;14.60;;
55609;SDS011;41486;52.502;13.486;2022-11-15T10:21:58;16.15;;;9.27;;
55609;SDS011;41486;52.502;13.486;2022-11-15T10:24:42;28.48;;;17.45;;
55609;SDS011;41486;52.502;13.486;2022-11-15T10:27:14;21.23;;;13.60;;
55609;SDS011;41486;52.502;13.486;2022-11-15T10:29:44;47.90;;;28.02;;
55609;SDS011;41486;52.502;13.486;2022-11-15T10:32:14;16.77;;;11.93;;
55609;SDS011;41486;52.502;13.486;2022-11-15T10:34:44;30.60;;;18.05;;
55609;SDS011;41486;52.502;13.486;2022-11-15T10:37:16;45.08;;;26.20;;
55609;SDS011;41486;52.502;13.486;2022-11-15T10:40:13;21.63;;;13.43;;
55609;SDS011;41486;52.502;13.486;2022-11-15T10:42:43;18.83;;;11.65;;
55609;SDS011;41486;52.502;13.486;2022-11-15T10:45:22;15.35;;;8.95;;
55609;SDS011;41486;52.502;13.486;2022-11-15T10:47:51;12.82;;;8.40;;
55609;SDS011;41486;52.502;13.486;2022-11-15T10:50:27;14.10;;;8.70;;
55609;SDS011;41486;52.502;13.486;2022-11-15T10:52:57;10.65;;;7.72;;
55609;SDS011;41486;52.502;13.486;2022-11-15T10:55:35;20.35;;;10.70;;
55609;SDS011;41486;52.502;13.486;2022-11-15T10:58:04;10.80;;;7.20;;
55609;SDS011;41486;52.502;13.486;2022-11-15T11:00:46;13.60;;;7.68;;
55609;SDS011;41486;52.502;13.486;2022-11-15T11:03:30;10.60;;;7.07;;
55609;SDS011;41486;52.502;13.486;2022-11-15T11:06:07;10.40;;;7.10;;
55609;SDS011;41486;52.502;13.486;2022-11-15T11:08:39;13.00;;;7.97;;
55609;SDS011;41486;52.502;13.486;2022-11-15T11:11:09;14.85;;;7.85;;
55609;SDS011;41486;52.502;13.486;2022-11-15T11:13:40;16.60;;;8.18;;
55609;SDS011;41486;52.502;13.486;2022-11-15T11:16:19;10.43;;;7.13;;
55609;SDS011;41486;52.502;13.486;2022-11-15T11:18:56;12.73;;;8.27;;
55609;SDS011;41486;52.502;13.486;2022-11-15T11:21:35;10.43;;;6.90;;
55609;SDS011;41486;52.502;13.486;2022-11-15T11:24:14;13.02;;;7.50;;
55609;SDS011;41486;52.502;13.486;2022-11-15T11:27:01;12.38;;;6.95;;
55609;SDS011;41486;52.502;13.486;2022-11-15T11:29:44;12.98;;;7.95;;
55609;SDS011;41486;52.502;13.486;2022-11-15T11:35:02;9.48;;;6.50;;
55609;SDS011;41486;52.502;13.486;2022-11-15T11:37:40;11.65;;;7.50;;
55609;SDS011;41486;52.502;13.486;2022-11-15T11:40:16;11.80;;;7.72;;
55609;SDS011;41486;52.502;13.486;2022-11-15T11:42:58;11.50;;;7.85;;
55609;SDS011;41486;52.502;13.486;2022-11-15T11:45:47;11.20;;;7.47;;
55609;SDS011;41486;52.502;13.486;2022-11-15T11:48:30;17.02;;;8.32;;
55609;SDS011;41486;52.502;13.486;2022-11-15T11:53:41;10.93;;;7.07;;
55609;SDS011;41486;52.502;13.486;2022-11-15T11:56:17;12.25;;;7.55;;
55609;SDS011;41486;52.502;13.486;2022-11-15T11:58:52;12.43;;;7.85;;
55609;SDS011;41486;52.502;13.486;2022-11-15T12:01:23;12.40;;;7.93;;
55609;SDS011;41486;52.502;13.486;2022-11-15T12:03:54;11.15;;;8.20;;
55609;SDS011;41486;52.502;13.486;2022-11-15T12:06:28;11.73;;;7.22;;
55609;SDS011;41486;52.502;13.486;2022-11-15T12:09:00;12.17;;;7.03;;
55609;SDS011;41486;52.502;13.486;2022-11-15T12:11:35;12.85;;;8.27;;
55609;SDS011;41486;52.502;13.486;2022-11-15T12:14:21;13.18;;;7.65;;
55609;SDS011;41486;52.502;13.486;2022-11-15T12:16:55;15.65;;;10.10;;
55609;SDS011;41486;52.502;13.486;2022-11-15T12:19:24;15.20;;;11.00;;
55609;SDS011;41486;52.502;13.486;2022-11-15T12:21:54;12.80;;;8.07;;
55609;SDS011;41486;52.502;13.486;2022-11-15T12:24:29;9.75;;;7.25;;
55609;SDS011;41486;52.502;13.486;2022-11-15T12:27:05;12.38;;;7.60;;
55609;SDS011;41486;52.502;13.486;2022-11-15T12:29:52;10.10;;;7.03;;
55609;SDS011;41486;52.502;13.486;2022-11-15T12:32:25;9.63;;;6.82;;
55609;SDS011;41486;52.502;13.486;2022-11-15T12:35:04;9.00;;;6.68;;
55609;SDS011;41486;52.502;13.486;2022-11-15T12:37:48;12.10;;;7.68;;
55609;SDS011;41486;52.502;13.486;2022-11-15T12:40:28;11.05;;;7.70;;
55609;SDS011;41486;52.502;13.486;2022-11-15T12:46:08;11.50;;;7.80;;
55609;SDS011;41486;52.502;13.486;2022-11-15T12:48:46;10.68;;;6.15;;
55609;SDS011;41486;52.502;13.486;2022-11-15T12:54:53;12.75;;;6.80;;
55609;SDS011;41486;52.502;13.486;2022-11-15T12:57:29;9.32;;;6.65;;
55609;SDS011;41486;52.502;13.486;2022-11-15T13:03:20;8.40;;;5.82;;
55609;SDS011;41486;52.502;13.486;2022-11-15T13:05:58;7.90;;;5.53;;
55609;SDS011;41486;52.502;13.486;2022-11-15T13:08:47;8.20;;;5.95;;
55609;SDS011;41486;52.502;13.486;2022-11-15T13:17:23;10.18;;;6.63;;
55609;SDS011;41486;52.502;13.486;2022-11-15T13:20:24;10.15;;;5.72;;
55609;SDS011;41486;52.502;13.486;2022-11-15T13:22:59;9.15;;;6.00;;
55609;SDS011;41486;52.502;13.486;2022-11-15T13:28:24;9.70;;;6.28;;
55609;SDS011;41486;52.502;13.486;2022-11-15T13:31:00;8.38;;;5.75;;
55609;SDS011;41486;52.502;13.486;2022-11-15T13:33:44;7.53;;;5.72;;
55609;SDS011;41486;52.502;13.486;2022-11-15T13:36:15;8.43;;;5.30;;
55609;SDS011;41486;52.502;13.486;2022-11-15T13:38:53;7.83;;;5.70;;
55609;SDS011;41486;52.502;13.486;2022-11-15T13:41:25;9.70;;;5.80;;
55609;SDS011;41486;52.502;13.486;2022-11-15T13:43:56;15.23;;;6.68;;
55609;SDS011;41486;52.502;13.486;2022-11-15T13:46:26;7.30;;;5.72;;
55609;SDS011;41486;52.502;13.486;2022-11-15T13:48:56;10.27;;;6.72;;
55609;SDS011;41486;52.502;13.486;2022-11-15T13:51:29;8.90;;;6.97;;
55609;SDS011;41486;52.502;13.486;2022-11-15T13:54:02;10.18;;;6.32;;
55609;SDS011;41486;52.502;13.486;2022-11-15T13:56:40;10.00;;;5.90;;
55609;SDS011;41486;52.502;13.486;2022-11-15T13:59:14;11.18;;;6.53;;
55609;SDS011;41486;52.502;13.486;2022-11-15T14:01:48;9.82;;;6.57;;
55609;SDS011;41486;52.502;13.486;2022-11-15T14:04:18;12.57;;;6.25;;
55609;SDS011;41486;52.502;13.486;2022-11-15T14:06:51;12.40;;;6.38;;
55609;SDS011;41486;52.502;13.486;2022-11-15T14:09:32;9.77;;;6.82;;
55609;SDS011;41486;52.502;13.486;2022-11-15T14:12:20;12.02;;;6.78;;
55609;SDS011;41486;52.502;13.486;2022-11-15T14:14:51;9.13;;;6.13;;
55609;SDS011;41486;52.502;13.486;2022-11-15T14:17:20;10.05;;;6.35;;
55609;SDS011;41486;52.502;13.486;2022-11-15T14:20:00;10.10;;;6.13;;
55609;SDS011;41486;52.502;13.486;2022-11-15T14:22:30;10.40;;;6.40;;
55609;SDS011;41486;52.502;13.486;2022-11-15T14:25:06;10.20;;;6.93;;
55609;SDS011;41486;52.502;13.486;2022-11-15T14:27:42;11.00;;;7.43;;
55609;SDS011;41486;52.502;13.486;2022-11-15T14:30:14;10.70;;;7.70;;
55609;SDS011;41486;52.502;13.486;2022-11-15T14:32:55;9.18;;;6.88;;
55609;SDS011;41486;52.502;13.486;2022-11-15T14:35:28;9.68;;;7.05;;
55609;SDS011;41486;52.502;13.486;2022-11-15T14:38:00;13.13;;;7.55;;
55609;SDS011;41486;52.502;13.486;2022-11-15T14:40:28;18.50;;;6.93;;
55609;SDS011;41486;52.502;13.486;2022-11-15T14:42:58;11.98;;;7.75;;
55609;SDS011;41486;52.502;13.486;2022-11-15T14:45:28;10.32;;;7.28;;
55609;SDS011;41486;52.502;13.486;2022-11-15T14:47:59;12.18;;;8.70;;
55609;SDS011;41486;52.502;13.486;2022-11-15T14:50:27;31.17;;;15.85;;
55609;SDS011;41486;52.502;13.486;2022-11-15T14:52:57;13.93;;;8.20;;
55609;SDS011;41486;52.502;13.486;2022-11-15T14:55:26;20.23;;;10.00;;
55609;SDS011;41486;52.502;13.486;2022-11-15T14:58:01;12.50;;;7.80;;
55609;SDS011;41486;52.502;13.486;2022-11-15T15:00:30;13.13;;;7.43;;
55609;SDS011;41486;52.502;13.486;2022-11-15T15:03:01;12.50;;;7.80;;
55609;SDS011;41486;52.502;13.486;2022-11-15T15:05:30;11.30;;;7.07;;
55609;SDS011;41486;52.502;13.486;2022-11-15T15:08:01;13.13;;;8.05;;
55609;SDS011;41486;52.502;13.486;2022-11-15T15:10:33;12.60;;;7.68;;
55609;SDS011;41486;52.502;13.486;2022-11-15T15:13:10;12.55;;;7.85;;
55609;SDS011;41486;52.502;13.486;2022-11-15T15:15:51;10.68;;;8.18;;
55609;SDS011;41486;52.502;13.486;2022-11-15T15:18:19;13.27;;;7.47;;
55609;SDS011;41486;52.502;13.486;2022-11-15T15:20:53;11.95;;;6.90;;
55609;SDS011;41486;52.502;13.486;2022-11-15T15:23:25;12.52;;;8.00;;
55609;SDS011;41486;52.502;13.486;2022-11-15T15:25:58;13.57;;;8.40;;
55609;SDS011;41486;52.502;13.486;2022-11-15T15:28:26;11.82;;;9.02;;
55609;SDS011;41486;52.502;13.486;2022-11-15T15:31:00;11.82;;;8.10;;
55609;SDS011;41486;52.502;13.486;2022-11-15T15:33:29;12.68;;;7.00;;
55609;SDS011;41486;52.502;13.486;2022-11-15T15:35:57;10.48;;;7.70;;
55609;SDS011;41486;52.502;13.486;2022-11-15T15:38:28;13.60;;;8.32;;
55609;SDS011;41486;52.502;13.486;2022-11-15T15:40:58;12.38;;;7.32;;
55609;SDS011;41486;52.502;13.486;2022-11-15T15:43:29;13.30;;;7.78;;
55609;SDS011;41486;52.502;13.486;2022-11-15T15:45:57;13.05;;;8.02;;
55609;SDS011;41486;52.502;13.486;2022-11-15T15:48:25;11.75;;;8.45;;
55609;SDS011;41486;52.502;13.486;2022-11-15T15:50:53;14.23;;;8.57;;
55609;SDS011;41486;52.502;13.486;2022-11-15T15:53:22;12.20;;;7.22;;
55609;SDS011;41486;52.502;13.486;2022-11-15T15:55:51;11.65;;;7.50;;
55609;SDS011;41486;52.502;13.486;2022-11-15T15:58:20;11.48;;;8.00;;
55609;SDS011;41486;52.502;13.486;2022-11-15T16:00:48;14.30;;;8.00;;
55609;SDS011;41486;52.502;13.486;2022-11-15T16:03:16;19.65;;;8.23;;
55609;SDS011;41486;52.502;13.486;2022-11-15T16:05:46;15.20;;;8.15;;
55609;SDS011;41486;52.502;13.486;2022-11-15T16:08:17;11.23;;;7.72;;
55609;SDS011;41486;52.502;13.486;2022-11-15T16:10:46;11.73;;;8.20;;
55609;SDS011;41486;52.502;13.486;2022-11-15T16:13:16;15.50;;;9.07;;
55609;SDS011;41486;52.502;13.486;2022-11-15T16:15:52;16.40;;;9.90;;
55609;SDS011;41486;52.502;13.486;2022-11-15T16:18:22;13.02;;;8.55;;
55609;SDS011;41486;52.502;13.486;2022-11-15T16:20:50;15.93;;;9.82;;
55609;SDS011;41486;52.502;13.486;2022-11-15T16:23:22;12.60;;;8.38;;